Time;durP1;ratioP1;P1;durP2;ratioP2;P2;SDS_P1;SDS_P2;PMS_P1;PMS_P2;Temp;Humidity;BMP_temperature;BMP_pressure;BME280_temperature;BME280_humidity;BME280_pressure;Samples;Min_cycle;Max_cycle;Signal;HPM_P1;HPM_P2
2023/08/28 00:00:06;;;;;;;11.32;1.80;;;;;;;14.06;100.00;100676.75;5019600;28;20068;-92
2023/08/28 00:02:32;;;;;;;9.88;2.17;;;;;;;14.05;100.00;100680.38;5057786;28;20095;-92
2023/08/28 00:04:58;;;;;;;11.52;2.50;;;;;;;14.09;100.00;100681.72;5054421;28;20029;-92
2023/08/28 00:07:23;;;;;;;9.77;1.92;;;;;;;14.10;100.00;100677.22;5023780;28;20102;-90
2023/08/28 00:09:49;;;;;;;10.98;2.15;;;;;;;14.11;100.00;100676.25;5034631;28;20095;-90
2023/08/28 00:12:15;;;;;;;11.95;2.17;;;;;;;14.11;100.00;100682.38;5049929;28;20029;-93
2023/08/28 00:14:41;;;;;;;12.10;1.92;;;;;;;14.10;100.00;100683.38;5050100;28;20076;-91
2023/08/28 00:17:06;;;;;;;19.02;1.92;;;;;;;14.06;100.00;100684.72;5049457;28;20080;-92
2023/08/28 00:19:32;;;;;;;11.02;2.40;;;;;;;14.04;100.00;100678.72;5034349;28;20067;-91
2023/08/28 00:21:58;;;;;;;13.80;1.70;;;;;;;14.02;100.00;100670.06;5033017;28;20100;-92
2023/08/28 00:24:23;;;;;;;12.65;1.83;;;;;;;14.00;100.00;100672.03;5030493;28;20105;-91
2023/08/28 00:26:49;;;;;;;8.95;1.65;;;;;;;13.99;100.00;100670.38;5045567;28;20068;-89
2023/08/28 00:29:15;;;;;;;11.77;1.80;;;;;;;13.94;100.00;100668.22;5032862;28;20030;-92
2023/08/28 00:31:41;;;;;;;8.15;2.53;;;;;;;13.91;100.00;100675.66;5030461;28;20048;-91
2023/08/28 00:34:06;;;;;;;9.73;1.85;;;;;;;13.93;100.00;100666.56;5049897;28;20037;-91
2023/08/28 00:36:32;;;;;;;16.98;2.45;;;;;;;13.91;100.00;100668.53;5048986;28;20040;-92
2023/08/28 00:38:58;;;;;;;8.32;1.60;;;;;;;13.93;100.00;100665.72;5019350;28;20033;-93
2023/08/28 00:41:25;;;;;;;10.77;2.08;;;;;;;13.87;100.00;100672.53;5031480;28;20033;-92
2023/08/28 00:43:51;;;;;;;14.90;2.47;;;;;;;13.79;100.00;100667.16;5041736;28;20114;-91
2023/08/28 00:46:17;;;;;;;7.53;1.77;;;;;;;13.75;100.00;100670.16;5019470;28;20032;-90
2023/08/28 00:48:42;;;;;;;12.93;2.33;;;;;;;13.73;100.00;100664.16;5047782;28;20042;-92
2023/08/28 00:51:08;;;;;;;13.35;2.10;;;;;;;13.70;100.00;100671.59;5019601;28;20028;-90
2023/08/28 00:53:35;;;;;;;11.40;1.98;;;;;;;13.69;100.00;100669.94;5023792;28;20473;-86
2023/08/28 00:56:01;;;;;;;9.80;2.78;;;;;;;13.68;100.00;100668.28;5049797;28;20094;-86
2023/08/28 00:58:27;;;;;;;9.65;1.80;;;;;;;13.64;100.00;100665.94;5032963;28;20544;-87
2023/08/28 01:00:53;;;;;;;13.43;1.98;;;;;;;13.56;100.00;100663.25;5035073;28;20044;-92
2023/08/28 01:03:20;;;;;;;10.68;1.98;;;;;;;13.57;100.00;100664.09;5041862;28;20101;-93
2023/08/28 01:06:19;;;;;;;11.38;1.98;;;;;;;13.59;100.00;100670.91;5016263;28;20481;-93
2023/08/28 01:08:57;;;;;;;8.35;2.00;;;;;;;13.57;100.00;100669.41;5066759;28;20071;-92
2023/08/28 01:11:41;;;;;;;14.90;1.95;;;;;;;13.55;100.00;100666.06;5043098;28;20025;-92
2023/08/28 01:14:27;;;;;;;13.35;2.03;;;;;;;13.54;100.00;100667.06;5007986;28;20134;-92
2023/08/28 01:16:57;;;;;;;4.97;1.60;;;;;;;13.50;100.00;100662.06;5038370;28;20552;-93
2023/08/28 01:19:38;;;;;;;10.40;2.28;;;;;;;13.53;100.00;100668.88;5032537;28;20033;-91
2023/08/28 01:22:40;;;;;;;15.13;2.20;;;;;;;13.50;100.00;100662.06;5032622;28;20041;-93
2023/08/28 01:25:10;;;;;;;11.82;1.73;;;;;;;13.46;100.00;100660.69;5045331;28;20496;-90
2023/08/28 01:27:40;;;;;;;13.00;2.15;;;;;;;13.45;100.00;100661.69;5029364;28;20484;-92
2023/08/28 01:30:15;;;;;;;10.00;1.73;;;;;;;13.45;100.00;100650.22;5029234;28;20504;-92
2023/08/28 01:32:43;;;;;;;7.70;1.77;;;;;;;13.45;100.00;100655.53;5035016;28;20098;-92
2023/08/28 01:35:15;;;;;;;10.02;1.65;;;;;;;13.46;100.00;100654.53;5020602;28;20043;-92
2023/08/28 01:38:09;;;;;;;14.38;1.90;;;;;;;13.47;100.00;100651.72;5055871;28;20033;-92
2023/08/28 01:41:04;;;;;;;8.32;1.40;;;;;;;13.43;100.00;100647.72;5029678;28;20037;-92
2023/08/28 01:43:35;;;;;;;9.23;1.67;;;;;;;13.45;100.00;100658.19;5032140;28;20473;-91
2023/08/28 01:46:02;;;;;;;9.95;1.90;;;;;;;13.44;100.00;100659.19;5033912;28;20041;-92
2023/08/28 01:48:28;;;;;;;3.97;1.10;;;;;;;13.44;100.00;100665.31;5013836;28;20500;-92
2023/08/28 01:50:54;;;;;;;9.88;1.95;;;;;;;13.42;100.00;100664.66;5049009;28;20045;-92
2023/08/28 01:53:21;;;;;;;10.13;1.85;;;;;;;13.44;100.00;100664.50;5034185;28;20107;-93
2023/08/28 01:56:08;;;;;;;6.78;1.33;;;;;;;13.43;100.00;100661.00;5020850;28;20482;-92
2023/08/28 01:58:41;;;;;;;4.63;0.90;;;;;;;13.38;100.00;100663.28;5030846;28;20090;-92
2023/08/28 02:01:07;;;;;;;11.07;1.85;;;;;;;13.33;100.00;100662.94;5034965;28;20032;-92
2023/08/28 02:03:33;;;;;;;5.57;1.25;;;;;;;13.28;100.00;100663.41;5017894;28;20048;-91
2023/08/28 02:05:59;;;;;;;8.95;1.70;;;;;;;13.31;100.00;100667.56;5066913;28;20021;-92
2023/08/28 02:08:24;;;;;;;4.10;0.90;;;;;;;13.27;100.00;100667.88;5034006;28;20048;-92
2023/08/28 02:10:54;;;;;;;5.90;1.10;;;;;;;13.27;100.00;100665.22;5030449;28;20049;-91
2023/08/28 02:13:21;;;;;;;3.70;0.75;;;;;;;13.21;100.00;100663.19;5024005;28;20435;-91
2023/08/28 02:15:47;;;;;;;4.00;1.00;;;;;;;13.20;100.00;100664.19;5020214;28;20037;-91
2023/08/28 02:18:13;;;;;;;3.60;1.20;;;;;;;13.21;100.00;100663.19;5050519;28;20029;-91
2023/08/28 02:20:38;;;;;;;6.35;1.20;;;;;;;13.22;100.00;100658.72;5020302;28;20033;-92
2023/08/28 02:23:04;;;;;;;4.13;0.80;;;;;;;13.23;100.00;100658.56;5031000;28;20039;-91
2023/08/28 02:25:30;;;;;;;5.28;0.90;;;;;;;13.24;100.00;100656.72;5049992;28;20037;-92
2023/08/28 02:27:56;;;;;;;5.95;1.30;;;;;;;13.21;100.00;100654.41;5048118;28;20080;-90
2023/08/28 02:30:21;;;;;;;3.85;0.90;;;;;;;13.22;100.00;100654.25;5031175;28;20044;-91
2023/08/28 02:32:47;;;;;;;11.77;1.83;;;;;;;13.21;100.00;100657.88;5047863;28;20390;-93
2023/08/28 02:35:13;;;;;;;5.35;1.10;;;;;;;13.21;100.00;100657.88;5043206;28;20040;-93
2023/08/28 02:37:39;;;;;;;6.00;0.90;;;;;;;13.20;100.00;100658.03;5036912;28;20078;-92
2023/08/28 02:40:06;;;;;;;5.05;1.45;;;;;;;13.21;100.00;100665.84;5063721;28;20136;-92
2023/08/28 02:42:32;;;;;;;7.45;1.17;;;;;;;13.23;100.00;100668.34;5041627;28;20043;-92
2023/08/28 02:44:58;;;;;;;8.90;1.50;;;;;;;13.20;100.00;100653.59;5059288;28;20040;-92
2023/08/28 02:47:24;;;;;;;4.22;1.30;;;;;;;13.18;100.00;100660.00;5034644;28;20124;-92
2023/08/28 02:49:50;;;;;;;3.85;0.85;;;;;;;13.14;100.00;100676.25;5017814;28;20040;-92
2023/08/28 02:52:16;;;;;;;4.55;1.15;;;;;;;13.14;100.00;100678.91;5035259;28;20029;-91
2023/08/28 02:54:41;;;;;;;8.38;1.90;;;;;;;13.11;100.00;100671.25;5041621;28;20036;-92
2023/08/28 02:57:07;;;;;;;2.72;0.80;;;;;;;13.12;100.00;100662.28;5049147;28;20445;-92
2023/08/28 02:59:33;;;;;;;3.35;1.08;;;;;;;13.19;100.00;100669.63;5053201;28;20071;-92
2023/08/28 03:01:59;;;;;;;3.17;0.77;;;;;;;13.19;100.00;100670.47;5037402;28;20559;-93
2023/08/28 03:04:24;;;;;;;3.45;0.60;;;;;;;13.20;100.00;100668.66;5024607;28;20037;-91
2023/08/28 03:06:50;;;;;;;6.60;0.85;;;;;;;13.19;100.00;100665.16;5035974;28;20029;-92
2023/08/28 03:09:16;;;;;;;5.18;0.80;;;;;;;13.17;100.00;100661.00;5053928;28;20401;-92
2023/08/28 03:11:42;;;;;;;9.18;0.82;;;;;;;13.20;100.00;100668.66;5020492;28;20036;-93
2023/08/28 03:14:08;;;;;;;6.90;0.90;;;;;;;13.19;100.00;100662.50;5020847;28;20033;-92
2023/08/28 03:16:34;;;;;;;17.55;1.50;;;;;;;13.23;100.00;100663.88;5020720;28;20040;-91
2023/08/28 03:18:59;;;;;;;3.55;0.90;;;;;;;13.22;100.00;100659.53;5035420;28;20036;-93
2023/08/28 03:21:25;;;;;;;3.67;1.08;;;;;;;13.23;100.00;100671.00;5021674;28;20052;-92
2023/08/28 03:23:51;;;;;;;3.72;1.10;;;;;;;13.23;100.00;100666.53;5022856;28;20393;-92
2023/08/28 03:26:17;;;;;;;5.15;0.93;;;;;;;13.23;100.00;100663.88;5070394;28;20028;-92
2023/08/28 03:28:44;;;;;;;4.22;1.00;;;;;;;13.22;100.00;100664.84;5016200;28;20033;-93
2023/08/28 03:31:11;;;;;;;2.58;0.95;;;;;;;13.21;100.00;100657.03;5023749;28;20033;-93
2023/08/28 03:33:36;;;;;;;2.80;0.80;;;;;;;13.20;100.00;100658.03;5035044;28;20366;-93
2023/08/28 03:36:04;;;;;;;5.22;1.20;;;;;;;13.17;100.00;100656.53;5034944;28;20068;-93
2023/08/28 03:38:30;;;;;;;8.52;1.17;;;;;;;13.12;100.00;100656.19;5049414;28;20037;-91
2023/08/28 03:40:56;;;;;;;4.50;1.17;;;;;;;13.09;100.00;100664.44;5053548;28;20397;-91
2023/08/28 03:43:21;;;;;;;7.28;1.27;;;;;;;13.07;100.00;100656.66;5036514;28;20040;-92
2023/08/28 03:45:47;;;;;;;2.25;0.82;;;;;;;13.07;100.00;100661.94;5037072;28;20040;-90
2023/08/28 03:48:13;;;;;;;4.03;0.90;;;;;;;13.09;100.00;100661.78;5050347;28;20508;-92
2023/08/28 03:50:39;;;;;;;6.95;1.15;;;;;;;13.08;100.00;100663.59;5053806;28;20056;-93
2023/08/28 03:53:05;;;;;;;4.80;0.82;;;;;;;13.13;100.00;100657.84;5053359;28;20032;-92
2023/08/28 03:55:31;;;;;;;4.97;0.80;;;;;;;13.16;100.00;100662.81;5053946;28;20032;-91
2023/08/28 03:58:00;;;;;;;5.40;0.93;;;;;;;13.21;100.00;100659.69;5053072;28;20087;-91
2023/08/28 04:00:25;;;;;;;7.15;1.10;;;;;;;13.21;100.00;100663.19;5021229;28;20048;-91
2023/08/28 04:02:51;;;;;;;2.72;1.00;;;;;;;13.27;100.00;100662.56;5000856;28;20033;-91
2023/08/28 04:05:17;;;;;;;6.28;1.15;;;;;;;13.33;100.00;100662.94;5072566;28;20063;-92
2023/08/28 04:07:44;;;;;;;1.48;0.60;;;;;;;13.32;100.00;100659.44;5054214;28;20064;-92
2023/08/28 04:10:10;;;;;;;3.65;1.13;;;;;;;13.34;100.00;100662.78;5034952;28;20076;-91
2023/08/28 04:12:37;;;;;;;3.28;0.80;;;;;;;13.38;100.00;100661.47;5022795;28;20393;-90
2023/08/28 04:15:03;;;;;;;4.57;0.93;;;;;;;13.43;100.00;100660.16;5051832;28;20447;-90
2023/08/28 04:17:30;;;;;;;4.97;0.98;;;;;;;13.46;100.00;100662.50;5035828;28;20086;-91
2023/08/28 04:19:56;;;;;;;1.90;0.80;;;;;;;13.47;100.00;100657.03;5035269;28;20037;-91
2023/08/28 04:22:22;;;;;;;5.45;0.75;;;;;;;13.46;100.00;100655.38;5036000;28;20124;-90
2023/08/28 04:24:52;;;;;;;2.63;0.68;;;;;;;13.50;100.00;100650.56;5036548;28;20052;-92
2023/08/28 04:27:18;;;;;;;7.47;1.15;;;;;;;13.46;100.00;100658.03;5052751;28;20029;-91
2023/08/28 04:29:44;;;;;;;3.88;1.10;;;;;;;13.46;100.00;100651.88;5051919;28;20032;-90
2023/08/28 04:32:10;;;;;;;3.20;0.80;;;;;;;13.43;100.00;100665.47;5053687;28;20041;-92
2023/08/28 04:34:36;;;;;;;4.50;0.90;;;;;;;13.40;100.00;100656.84;5035926;28;20040;-91
2023/08/28 04:37:03;;;;;;;3.08;0.88;;;;;;;13.37;100.00;100667.78;5052933;28;20079;-91
2023/08/28 04:39:29;;;;;;;4.60;0.88;;;;;;;13.37;100.00;100669.59;5024628;28;20432;-91
2023/08/28 04:41:55;;;;;;;8.32;1.25;;;;;;;13.41;100.00;100668.28;5035186;28;20481;-91
2023/08/28 04:44:21;;;;;;;6.07;1.58;;;;;;;13.41;100.00;100670.94;5051380;28;20072;-91
2023/08/28 04:46:47;;;;;;;4.50;0.95;;;;;;;13.44;100.00;100665.31;5051846;28;20035;-92
2023/08/28 04:49:14;;;;;;;2.38;0.93;;;;;;;13.40;100.00;100667.47;5050328;28;20095;-91
2023/08/28 04:51:41;;;;;;;3.78;1.15;;;;;;;13.38;100.00;100673.91;5017003;28;20087;-91
2023/08/28 04:54:08;;;;;;;8.55;1.02;;;;;;;13.38;100.00;100679.22;5034286;28;20024;-91
2023/08/28 04:56:34;;;;;;;4.35;1.23;;;;;;;13.34;100.00;100680.53;5051788;28;20037;-93
2023/08/28 04:59:01;;;;;;;3.65;0.93;;;;;;;13.28;100.00;100680.16;5033486;28;20056;-91
2023/08/28 05:01:26;;;;;;;5.18;1.48;;;;;;;13.24;100.00;100683.28;5068125;28;20713;-91
2023/08/28 05:03:52;;;;;;;5.18;1.20;;;;;;;13.25;100.00;100693.75;5052078;28;20443;-93
2023/08/28 05:06:18;;;;;;;9.30;1.65;;;;;;;13.24;100.00;100686.78;5018910;28;20473;-93
2023/08/28 05:08:44;;;;;;;5.03;1.20;;;;;;;13.25;100.00;100692.94;5025952;28;20049;-92
2023/08/28 05:11:10;;;;;;;5.15;1.30;;;;;;;13.25;100.00;100701.69;5017588;28;20496;-92
2023/08/28 05:13:35;;;;;;;6.32;1.02;;;;;;;13.21;100.00;100689.75;5051787;28;20036;-90
2023/08/28 05:16:01;;;;;;;5.95;1.10;;;;;;;13.21;100.00;100688.91;5034034;28;20036;-92
2023/08/28 05:18:27;;;;;;;6.57;1.40;;;;;;;13.23;100.00;100685.13;5051406;28;20477;-92
2023/08/28 05:20:54;;;;;;;3.72;1.55;;;;;;;13.23;100.00;100697.56;5029759;28;20037;-92
2023/08/28 05:23:25;;;;;;;6.57;1.35;;;;;;;13.26;100.00;100697.22;5016623;28;20037;-92
2023/08/28 05:25:52;;;;;;;5.22;1.02;;;;;;;13.31;100.00;100699.41;5032125;28;20116;-92
2023/08/28 05:28:18;;;;;;;8.27;1.33;;;;;;;13.33;100.00;100694.81;5066824;28;20029;-91
2023/08/28 05:30:44;;;;;;;5.45;1.25;;;;;;;13.35;100.00;100696.28;5015070;28;20048;-91
2023/08/28 05:33:09;;;;;;;4.40;1.27;;;;;;;13.39;100.00;100691.50;5030021;28;20029;-91
2023/08/28 05:35:35;;;;;;;7.50;1.33;;;;;;;13.41;100.00;100700.13;5062136;28;20032;-92
2023/08/28 05:38:01;;;;;;;7.88;1.40;;;;;;;13.42;100.00;100704.47;4998743;28;20040;-92
2023/08/28 05:40:27;;;;;;;5.80;1.35;;;;;;;13.42;100.00;100701.81;5041844;28;20029;-91
2023/08/28 05:42:52;;;;;;;5.80;1.70;;;;;;;13.39;100.00;100696.81;5051718;28;20543;-91
2023/08/28 05:45:18;;;;;;;3.55;1.15;;;;;;;13.41;100.00;100694.81;5051008;28;20207;-91
2023/08/28 05:47:44;;;;;;;8.57;1.50;;;;;;;13.47;100.00;100704.81;5049132;28;20033;-92
2023/08/28 05:50:11;;;;;;;3.63;1.30;;;;;;;13.52;100.00;100699.91;5048627;28;20110;-89
2023/08/28 05:52:38;;;;;;;10.15;1.85;;;;;;;13.52;100.00;100701.75;5043249;28;20036;-92
2023/08/28 05:55:07;;;;;;;4.13;1.73;;;;;;;13.50;100.00;100699.25;5039712;28;20091;-91
2023/08/28 05:57:34;;;;;;;5.30;1.30;;;;;;;13.47;100.00;100691.53;5017538;28;20397;-92
2023/08/28 06:00:00;;;;;;;7.13;1.70;;;;;;;13.46;100.00;100700.50;5039933;28;20037;-92
2023/08/28 06:02:26;;;;;;;3.28;1.10;;;;;;;13.48;100.00;100701.19;5037466;28;20037;-92
2023/08/28 06:04:54;;;;;;;11.25;1.52;;;;;;;13.48;100.00;100700.34;5050414;28;20068;-91
2023/08/28 06:07:20;;;;;;;5.30;1.33;;;;;;;13.51;100.00;100703.56;5051060;28;20064;-92
2023/08/28 06:09:47;;;;;;;5.70;1.50;;;;;;;13.57;100.00;100698.63;5051354;28;20132;-91
2023/08/28 06:12:13;;;;;;;8.02;1.67;;;;;;;13.57;100.00;100696.78;5047477;28;20517;-91
2023/08/28 06:14:38;;;;;;;8.95;1.63;;;;;;;13.56;100.00;100694.28;5046950;28;20029;-91
2023/08/28 06:17:04;;;;;;;8.73;2.30;;;;;;;13.54;100.00;100688.31;5033420;28;20116;-90
2023/08/28 06:19:30;;;;;;;4.68;1.55;;;;;;;13.54;100.00;100693.63;5036464;28;20044;-92
2023/08/28 06:21:56;;;;;;;5.18;1.98;;;;;;;13.51;100.00;100694.75;5052404;28;20112;-90
2023/08/28 06:24:21;;;;;;;7.93;1.65;;;;;;;13.48;100.00;100695.88;5036446;28;20029;-91
2023/08/28 06:26:47;;;;;;;6.28;1.70;;;;;;;13.43;100.00;100697.31;5054292;28;20029;-91
2023/08/28 06:29:13;;;;;;;8.43;1.67;;;;;;;13.40;100.00;100687.84;5007594;28;20041;-89
2023/08/28 06:31:39;;;;;;;8.15;1.73;;;;;;;13.45;100.00;100692.69;5036310;28;20045;-91
2023/08/28 06:34:04;;;;;;;6.65;1.75;;;;;;;13.44;100.00;100689.19;5054125;28;20044;-91
2023/08/28 06:36:30;;;;;;;9.02;2.45;;;;;;;13.44;100.00;100688.38;5051314;28;20029;-90
2023/08/28 06:38:57;;;;;;;7.03;1.85;;;;;;;13.44;100.00;100691.84;5051137;28;20108;-91
2023/08/28 06:41:23;;;;;;;8.80;1.73;;;;;;;13.44;100.00;100683.06;5035975;28;20078;-89
2023/08/28 06:43:48;;;;;;;5.65;2.00;;;;;;;13.46;100.00;100687.22;5054340;28;20486;-89
2023/08/28 06:46:15;;;;;;;4.25;1.63;;;;;;;13.51;100.00;100697.41;5052894;28;20500;-89
2023/08/28 06:48:44;;;;;;;8.43;2.20;;;;;;;13.55;100.00;100700.59;5049940;28;20059;-91
2023/08/28 06:51:11;;;;;;;5.25;2.28;;;;;;;13.58;100.00;100700.28;5032927;28;20029;-88
2023/08/28 06:53:37;;;;;;;6.28;1.60;;;;;;;13.60;100.00;100695.66;5025716;28;20033;-89
2023/08/28 06:56:04;;;;;;;5.82;1.80;;;;;;;13.66;100.00;100699.47;5046810;28;20069;-88
2023/08/28 06:58:30;;;;;;;6.97;1.90;;;;;;;13.66;100.00;100702.97;5047953;28;20082;-86
2023/08/28 07:00:56;;;;;;;5.05;1.90;;;;;;;13.63;100.00;100693.47;5050220;28;20084;-88
2023/08/28 07:03:21;;;;;;;3.95;1.58;;;;;;;13.70;100.00;100693.69;5033851;28;20701;-89
2023/08/28 07:05:47;;;;;;;3.42;1.30;;;;;;;13.72;100.00;100702.34;5023695;28;20477;-88
2023/08/28 07:08:13;;;;;;;5.97;1.95;;;;;;;13.77;100.00;100696.56;5050524;28;20043;-88
2023/08/28 07:10:39;;;;;;;6.38;2.30;;;;;;;13.83;100.00;100700.38;5031069;28;20056;-88
2023/08/28 07:13:04;;;;;;;3.65;1.33;;;;;;;13.92;100.00;100706.56;5050609;28;20045;-87
2023/08/28 07:15:30;;;;;;;10.90;2.10;;;;;;;13.96;100.00;100703.44;5032204;28;20029;-87
2023/08/28 07:17:56;;;;;;;6.82;1.88;;;;;;;14.02;100.00;100712.59;5032746;28;20559;-88
2023/08/28 07:20:23;;;;;;;4.43;1.67;;;;;;;14.02;100.00;100715.25;5032740;28;20071;-89
2023/08/28 07:22:49;;;;;;;7.63;1.80;;;;;;;14.04;100.00;100713.28;5033295;28;20033;-88
2023/08/28 07:25:16;;;;;;;5.25;1.50;;;;;;;14.09;100.00;100713.63;5033570;28;20036;-87
2023/08/28 07:27:42;;;;;;;8.10;1.92;;;;;;;14.10;100.00;100703.81;5033110;28;20033;-88
2023/08/28 07:30:08;;;;;;;6.28;1.85;;;;;;;14.14;100.00;100718.47;5050582;28;20029;-88
2023/08/28 07:32:34;;;;;;;6.00;2.13;;;;;;;14.12;100.00;100717.78;5033763;28;20132;-88
2023/08/28 07:35:00;;;;;;;5.85;1.80;;;;;;;14.10;100.00;100719.75;5049674;28;20389;-88
2023/08/28 07:37:30;;;;;;;7.07;2.10;;;;;;;14.13;100.00;100716.78;5064776;28;20107;-89
2023/08/28 07:39:55;;;;;;;8.75;2.05;;;;;;;14.09;100.00;100718.09;5015228;28;20032;-88
2023/08/28 07:42:21;;;;;;;6.53;1.83;;;;;;;14.10;100.00;100719.75;5002086;28;20037;-89
2023/08/28 07:44:47;;;;;;;6.60;1.67;;;;;;;14.10;100.00;100720.59;5067868;28;20115;-90
2023/08/28 07:47:13;;;;;;;5.13;1.80;;;;;;;14.10;100.00;100720.59;5052097;28;20064;-91
2023/08/28 07:49:41;;;;;;;9.90;1.88;;;;;;;14.14;100.00;100719.25;5069058;28;20044;-90
2023/08/28 07:52:06;;;;;;;5.70;1.80;;;;;;;14.13;100.00;100719.44;5019177;28;20067;-91
2023/08/28 07:54:32;;;;;;;4.60;1.75;;;;;;;14.14;100.00;100707.81;5035599;28;20485;-90
2023/08/28 07:56:58;;;;;;;7.15;1.80;;;;;;;14.21;100.00;100710.66;5048290;28;20041;-91
2023/08/28 07:59:24;;;;;;;8.73;1.77;;;;;;;14.21;100.00;100703.50;5054499;28;20496;-90
2023/08/28 08:01:49;;;;;;;7.55;1.90;;;;;;;14.31;100.00;100716.66;5017695;28;20033;-89
2023/08/28 08:04:15;;;;;;;7.32;1.98;;;;;;;14.38;100.00;100712.34;5060516;28;20029;-90
2023/08/28 08:06:41;;;;;;;7.68;2.50;;;;;;;14.43;100.00;100713.72;5054402;28;20036;-89
2023/08/28 08:09:07;;;;;;;12.10;2.10;;;;;;;14.48;100.00;100719.34;5051079;28;20048;-90
2023/08/28 08:11:32;;;;;;;5.18;2.10;;;;;;;14.49;100.00;100716.53;5016385;28;20037;-90
2023/08/28 08:13:58;;;;;;;8.75;2.20;;;;;;;14.53;100.00;100725.03;5015275;28;20401;-90
2023/08/28 08:16:24;;;;;;;4.55;1.90;;;;;;;14.53;100.00;100717.03;5013212;28;20041;-90
2023/08/28 08:18:50;;;;;;;12.15;2.10;;;;;;;14.55;100.00;100723.03;5033256;28;20040;-91
2023/08/28 08:21:16;;;;;;;4.75;1.67;;;;;;;14.59;100.00;100723.53;5034646;28;20033;-91
2023/08/28 08:23:42;;;;;;;4.75;2.05;;;;;;;14.66;100.00;100724.53;5034216;28;20067;-92
2023/08/28 08:26:07;;;;;;;7.75;1.90;;;;;;;14.62;100.00;100720.56;5002140;28;20040;-92
2023/08/28 08:28:34;;;;;;;6.78;1.88;;;;;;;14.63;100.00;100728.38;5048501;28;20110;-91
2023/08/28 08:31:00;;;;;;;8.80;1.73;;;;;;;14.60;100.00;100731.38;5013607;28;20033;-91
2023/08/28 08:33:25;;;;;;;5.45;1.80;;;;;;;14.57;100.00;100729.00;5019532;28;20044;-92
2023/08/28 08:35:51;;;;;;;4.50;1.80;;;;;;;14.54;100.00;100726.66;5001667;28;20091;-89
2023/08/28 08:38:17;;;;;;;9.25;1.52;;;;;;;14.50;100.00;100722.69;5050431;28;20516;-90
2023/08/28 08:40:43;;;;;;;8.30;2.15;;;;;;;14.54;100.00;100729.34;5009790;28;20040;-91
2023/08/28 08:43:09;;;;;;;4.75;1.60;;;;;;;14.52;100.00;100721.50;5016568;28;20164;-91
2023/08/28 08:45:37;;;;;;;6.78;1.77;;;;;;;14.56;100.00;100724.69;5029387;28;20041;-90
2023/08/28 08:48:08;;;;;;;7.60;1.73;;;;;;;14.56;100.00;100721.19;5000761;28;20044;-90
2023/08/28 08:50:37;;;;;;;8.35;1.95;;;;;;;14.54;100.00;100729.34;5036548;28;20036;-92
2023/08/28 08:53:25;;;;;;;4.38;1.23;;;;;;;14.55;100.00;100727.50;5033630;28;20040;-90
2023/08/28 08:55:54;;;;;;;5.10;1.75;;;;;;;14.58;100.00;100725.38;5043260;28;20036;-89
2023/08/28 08:58:21;;;;;;;5.35;1.80;;;;;;;14.65;100.00;100722.88;5039249;28;20053;-91
2023/08/28 09:00:48;;;;;;;5.10;1.60;;;;;;;14.68;100.00;100727.88;5035250;28;20673;-90
2023/08/28 09:03:14;;;;;;;4.05;1.40;;;;;;;14.78;100.00;100730.38;5032518;28;21102;-90
2023/08/28 09:05:41;;;;;;;4.78;1.45;;;;;;;14.84;100.00;100734.25;5026371;28;20474;-92
2023/08/28 09:08:08;;;;;;;7.93;1.75;;;;;;;14.82;100.00;100728.25;5030454;28;20044;-89
2023/08/28 09:10:34;;;;;;;7.57;1.40;;;;;;;14.90;100.00;100727.41;5048608;28;20246;-90
2023/08/28 09:13:00;;;;;;;3.33;1.70;;;;;;;15.00;100.00;100720.09;5031486;28;20028;-89
2023/08/28 09:15:25;;;;;;;5.47;1.60;;;;;;;15.08;100.00;100716.59;5032500;28;20033;-90
2023/08/28 09:17:52;;;;;;;4.05;1.25;;;;;;;15.13;100.00;100714.25;5029373;28;20500;-89
2023/08/28 09:20:21;;;;;;;6.32;1.42;;;;;;;15.16;100.00;100711.25;5032778;28;20107;-89
2023/08/28 09:22:51;;;;;;;8.23;1.60;;;;;;;15.20;100.00;100717.09;5003278;28;20036;-92
2023/08/28 09:25:19;;;;;;;1.55;1.10;;;;;;;15.20;100.00;100717.09;5019939;28;20028;-90
2023/08/28 09:27:46;;;;;;;3.50;1.38;;;;;;;15.19;100.00;100705.63;5014520;28;20067;-88
2023/08/28 09:30:36;;;;;;;6.80;1.40;;;;;;;15.18;100.00;100711.94;5030248;28;20045;-91
2023/08/28 09:33:04;;;;;;;5.30;1.27;;;;;;;15.12;100.00;100709.94;5012453;28;20122;-89
2023/08/28 09:35:40;;;;;;;5.55;1.48;;;;;;;15.07;100.00;100704.28;5048381;28;20037;-87
2023/08/28 09:38:07;;;;;;;7.22;2.13;;;;;;;15.11;100.00;100700.28;5031255;28;20164;-89
2023/08/28 09:40:39;;;;;;;8.18;2.08;;;;;;;15.19;100.00;100697.63;5047941;28;20037;-89
2023/08/28 09:43:13;;;;;;;4.25;1.45;;;;;;;15.35;100.00;100690.59;5035433;28;20033;-89
2023/08/28 09:45:41;;;;;;;5.15;1.27;;;;;;;15.41;100.00;100687.25;5015985;28;20076;-89
2023/08/28 09:48:07;;;;;;;5.30;1.27;;;;;;;15.46;100.00;100684.09;5047600;28;20064;-90
2023/08/28 09:50:34;;;;;;;3.53;1.63;;;;;;;15.50;100.00;100680.06;5047469;28;20036;-90
2023/08/28 09:53:14;;;;;;;6.22;1.50;;;;;;;15.47;100.00;100680.41;5035382;28;20359;-88
2023/08/28 09:55:49;;;;;;;5.47;1.52;;;;;;;15.43;100.00;100673.78;5018392;28;20047;-90
2023/08/28 09:58:15;;;;;;;4.22;0.98;;;;;;;15.33;100.00;100674.81;5068592;28;20555;-89
2023/08/28 10:00:42;;;;;;;5.53;1.40;;;;;;;15.30;100.00;100663.66;5051746;28;20060;-90
2023/08/28 10:03:12;;;;;;;3.45;1.05;;;;;;;15.27;100.00;100656.84;5031824;28;20048;-89
2023/08/28 10:05:43;;;;;;;2.58;0.90;;;;;;;15.33;100.00;100656.16;5056365;28;20032;-89
2023/08/28 10:08:10;;;;;;;3.05;1.25;;;;;;;15.41;100.00;100657.13;5001441;28;20033;-90
2023/08/28 10:10:38;;;;;;;4.13;1.23;;;;;;;15.52;100.00;100656.75;5047037;28;20041;-89
2023/08/28 10:13:13;;;;;;;3.13;1.33;;;;;;;15.63;100.00;100658.22;5010490;28;20506;-91
2023/08/28 10:15:51;;;;;;;3.45;0.82;;;;;;;15.77;100.00;100640.66;5040914;28;20551;-88
2023/08/28 10:18:38;;;;;;;3.13;0.65;;;;;;;15.93;100.00;100650.41;5013892;28;20044;-89
2023/08/28 10:21:06;;;;;;;2.38;0.70;;;;;;;16.16;100.00;100649.66;5062667;28;20028;-87
2023/08/28 10:23:34;;;;;;;1.38;0.73;;;;;;;16.37;100.00;100637.53;5021312;28;20120;-88
2023/08/28 10:26:01;;;;;;;2.35;1.00;;;;;;;16.53;100.00;100636.53;5028371;28;20029;-87
2023/08/28 10:28:28;;;;;;;1.48;0.63;;;;;;;16.65;100.00;100638.78;5036676;28;20059;-87
2023/08/28 10:30:56;;;;;;;1.63;0.70;;;;;;;16.74;100.00;100635.03;5066346;28;20043;-89
2023/08/28 10:33:22;;;;;;;3.08;0.60;;;;;;;16.80;100.00;100634.31;5043522;28;20374;-92
2023/08/28 10:35:54;;;;;;;2.03;0.80;;;;;;;16.81;100.00;100636.00;5050181;28;20028;-89
2023/08/28 10:38:20;;;;;;;1.80;0.65;;;;;;;16.72;100.00;100635.22;5039103;28;20033;-87
2023/08/28 10:40:49;;;;;;;0.85;0.60;;;;;;;16.73;100.00;100644.06;5044528;28;20033;-90
2023/08/28 10:43:16;;;;;;;1.10;0.60;;;;;;;16.69;100.00;100640.91;5019367;28;20065;-88
2023/08/28 10:45:43;;;;;;;2.97;0.80;;;;;;;16.67;100.00;100642.13;5050880;28;20052;-88
2023/08/28 10:48:09;;;;;;;1.48;0.60;;;;;;;16.67;100.00;100639.44;5052576;28;20061;-90
2023/08/28 10:50:37;;;;;;;1.25;0.75;;;;;;;16.65;100.00;100644.13;5031788;28;20025;-92
2023/08/28 10:53:03;;;;;;;0.68;0.40;;;;;;;16.69;100.00;100643.59;5052521;28;20033;-90
2023/08/28 10:55:29;;;;;;;2.63;0.60;;;;;;;16.78;100.00;100639.03;5051390;28;20041;-90
2023/08/28 10:58:00;;;;;;;1.45;0.57;;;;;;;16.88;100.00;100636.09;5052836;28;20025;-91
2023/08/28 11:00:28;;;;;;;0.63;0.40;;;;;;;16.89;100.00;100643.09;5051433;28;20391;-91
2023/08/28 11:03:09;;;;;;;2.92;0.75;;;;;;;17.02;100.00;100633.63;5000058;28;20045;-90
2023/08/28 11:05:39;;;;;;;4.45;0.65;;;;;;;17.16;100.00;100629.31;5016094;28;20025;-90
2023/08/28 11:08:11;;;;;;;0.88;0.50;;;;;;;17.38;100.00;100627.59;5036311;28;20119;-90
2023/08/28 11:10:38;;;;;;;1.00;0.57;;;;;;;17.64;100.00;100622.75;5064338;28;20498;-92
2023/08/28 11:13:08;;;;;;;0.98;0.40;;;;;;;17.90;100.00;100624.91;5035154;28;20041;-91
2023/08/28 11:15:38;;;;;;;0.63;0.30;;;;;;;17.95;100.00;100622.50;5052367;28;20519;-90
2023/08/28 11:18:29;;;;;;;0.93;0.40;;;;;;;17.96;100.00;100624.16;4997834;28;20057;-93